createdAt,value
2017-06-09T15:18:46.268Z,2.40
2017-06-09T15:21:20.620Z,2.67
2017-06-09T15:23:54.416Z,2.80
2017-06-09T15:26:29.740Z,2.50
2017-06-09T15:29:04.057Z,2.00
2017-06-09T15:31:37.916Z,2.70
2017-06-09T15:34:11.594Z,1.90
2017-06-09T15:36:45.241Z,2.20
2017-06-09T15:39:19.112Z,2.10
2017-06-09T15:41:53.513Z,1.70
2017-06-09T15:44:28.348Z,2.33
2017-06-09T15:47:03.168Z,2.65
2017-06-09T15:49:37.910Z,1.60
2017-06-09T15:52:12.725Z,2.40
2017-06-09T15:54:47.576Z,3.63
2017-06-09T15:57:21.399Z,3.10
2017-06-09T15:59:56.148Z,1.40
2017-06-09T16:02:30.615Z,3.07
2017-06-09T16:05:05.356Z,3.80
2017-06-09T16:07:39.176Z,1.70
2017-06-09T16:10:12.961Z,2.17
2017-06-09T16:12:46.619Z,3.00
2017-06-09T16:15:21.249Z,10.10
2017-06-09T16:17:55.796Z,5.57
2017-06-09T16:20:30.404Z,5.33
2017-06-09T16:23:05.863Z,3.30
2017-06-09T16:25:39.746Z,5.30
2017-06-09T16:28:14.198Z,3.17
2017-06-09T16:30:49.219Z,5.20
2017-06-09T16:33:22.811Z,2.83
2017-06-09T16:35:56.612Z,9.33
2017-06-09T16:38:30.321Z,3.47
2017-06-09T16:41:04.801Z,2.27
2017-06-09T16:43:38.652Z,5.00
2017-06-09T16:46:13.214Z,5.10
2017-06-09T16:48:47.028Z,5.33
2017-06-09T16:51:21.680Z,3.53
2017-06-09T16:53:56.161Z,3.00
2017-06-09T16:56:30.193Z,4.13
2017-06-09T16:59:03.867Z,4.37
2017-06-09T17:01:38.836Z,4.33
2017-06-09T17:04:13.416Z,4.30
2017-06-09T17:06:48.087Z,4.13
2017-06-09T17:09:21.961Z,2.03
2017-06-09T17:11:57.316Z,3.17
2017-06-09T17:14:31.263Z,2.87
2017-06-09T17:17:05.212Z,4.43
2017-06-09T17:19:39.693Z,3.27
2017-06-09T17:22:14.302Z,3.70
2017-06-09T17:24:48.310Z,5.27
2017-06-09T17:27:22.267Z,3.30
2017-06-09T17:29:56.606Z,3.83
2017-06-09T17:32:31.278Z,6.23
2017-06-09T17:35:05.213Z,3.17
2017-06-09T17:37:38.972Z,4.00
2017-06-09T17:40:12.671Z,3.80
2017-06-09T17:42:47.184Z,3.47
2017-06-09T17:45:20.912Z,3.07
2017-06-09T17:47:54.727Z,2.50
2017-06-09T17:50:28.352Z,3.20
2017-06-09T17:53:02.824Z,1.50
2017-06-09T17:55:36.772Z,1.80
2017-06-09T17:58:10.864Z,2.10
2017-06-09T18:00:45.355Z,2.30
2017-06-09T18:03:20.017Z,3.03
2017-06-09T18:05:53.706Z,2.50
2017-06-09T18:08:28.395Z,2.07
2017-06-09T18:11:02.038Z,2.47
2017-06-09T18:13:35.776Z,1.60
2017-06-09T18:16:11.151Z,3.43
2017-06-09T18:18:46.013Z,1.77
2017-06-09T18:21:19.952Z,3.80
2017-06-09T18:23:53.732Z,2.10
2017-06-09T18:26:27.460Z,2.00
2017-06-09T18:29:01.300Z,2.07
2017-06-09T18:31:34.968Z,2.33
2017-06-09T18:34:09.716Z,3.10
2017-06-09T18:36:43.617Z,2.60
2017-06-09T18:39:17.441Z,3.10
2017-06-09T18:41:51.228Z,3.27
2017-06-09T18:44:25.750Z,3.63
2017-06-09T18:46:59.508Z,2.07
2017-06-09T18:49:33.769Z,2.13
2017-06-09T18:52:08.201Z,4.03
2017-06-09T18:54:42.813Z,2.60
2017-06-09T18:57:16.572Z,4.53
2017-06-09T18:59:50.638Z,2.30
2017-06-09T19:02:24.260Z,3.60
2017-06-09T19:04:58.072Z,3.10
2017-06-09T19:07:31.688Z,2.33
2017-06-09T19:10:07.167Z,2.93
2017-06-09T19:12:41.001Z,3.03
2017-06-09T19:15:14.853Z,3.50
2017-06-09T19:17:49.476Z,3.60
2017-06-09T19:20:24.143Z,2.50
2017-06-09T19:22:57.927Z,3.43
2017-06-09T19:25:32.585Z,4.93
2017-06-09T19:28:07.160Z,3.43
2017-06-09T19:30:42.068Z,3.57
2017-06-09T19:33:15.670Z,3.30
2017-06-09T19:35:49.550Z,3.00
2017-06-09T19:38:24.101Z,3.33
2017-06-09T19:40:57.876Z,3.20
2017-06-09T19:43:31.683Z,2.70
2017-06-09T19:46:05.568Z,4.07
2017-06-09T19:48:39.986Z,4.17
2017-06-09T19:51:14.196Z,3.37
2017-06-09T19:53:48.645Z,3.43
2017-06-09T19:56:23.312Z,3.73
2017-06-09T19:58:56.904Z,3.90
2017-06-09T20:01:32.760Z,3.77
2017-06-09T20:04:06.460Z,4.50
2017-06-09T20:06:40.104Z,3.47
2017-06-09T20:09:13.740Z,3.57
2017-06-09T20:11:48.368Z,4.13
2017-06-09T20:14:22.300Z,3.60
2017-06-09T20:16:56.079Z,3.63
2017-06-09T20:19:31.368Z,3.97
2017-06-09T20:22:05.440Z,3.80
2017-06-09T20:24:39.908Z,3.63
2017-06-09T20:27:13.884Z,5.00
2017-06-09T20:29:48.236Z,4.67
2017-06-09T20:32:22.439Z,4.57
2017-06-09T20:34:56.030Z,3.87
2017-06-09T20:37:29.960Z,6.40
2017-06-09T20:40:04.496Z,4.13
2017-06-09T20:42:38.440Z,7.33
2017-06-09T20:45:12.161Z,7.43
2017-06-09T20:47:46.757Z,5.30
2017-06-09T20:50:21.568Z,4.97
2017-06-09T20:52:55.800Z,5.50
2017-06-09T20:55:30.291Z,6.50
2017-06-09T20:58:04.513Z,6.33
2017-06-09T21:00:39.161Z,5.23
2017-06-09T21:03:13.059Z,5.27
2017-06-09T21:05:46.820Z,6.00
2017-06-09T21:08:20.677Z,6.67
2017-06-09T21:10:54.423Z,4.97
2017-06-09T21:13:29.009Z,4.60
2017-06-09T21:16:03.724Z,4.53
2017-06-09T21:18:37.704Z,15.30
2017-06-09T21:21:11.384Z,5.83
2017-06-09T21:23:45.893Z,6.57
2017-06-09T21:26:19.765Z,5.87
2017-06-09T21:28:54.436Z,6.27
2017-06-09T21:31:28.127Z,5.80
2017-06-09T21:34:01.937Z,5.23
2017-06-09T21:36:36.426Z,5.90
2017-06-09T21:39:11.185Z,5.27
2017-06-09T21:41:45.012Z,6.60
2017-06-09T21:44:19.520Z,5.60
2017-06-09T21:46:53.520Z,6.70
2017-06-09T21:49:27.432Z,7.20
2017-06-09T21:52:01.959Z,8.00
2017-06-09T21:54:35.630Z,6.40
2017-06-09T21:57:09.361Z,33.47
2017-06-09T21:59:43.184Z,36.47
2017-06-09T22:02:16.845Z,163.03
2017-06-09T22:04:50.837Z,171.37
2017-06-09T22:07:25.353Z,133.53
2017-06-09T22:09:59.924Z,225.20
2017-06-09T22:12:33.633Z,196.20
2017-06-09T22:15:07.656Z,188.80
2017-06-09T22:17:42.214Z,60.93
2017-06-09T22:20:16.112Z,39.83
2017-06-09T22:22:50.575Z,56.73
2017-06-09T22:25:24.758Z,67.33
2017-06-09T22:27:58.476Z,63.47
2017-06-09T22:30:33.141Z,57.37
2017-06-09T22:33:06.909Z,47.67
2017-06-09T22:35:41.553Z,55.10
2017-06-09T22:38:16.164Z,12.17
2017-06-09T22:40:50.217Z,97.20
2017-06-09T22:43:23.847Z,74.17
2017-06-09T22:45:58.528Z,34.57
2017-06-09T22:48:32.952Z,42.10
2017-06-09T22:51:06.632Z,47.77
2017-06-09T22:53:41.181Z,39.13
2017-06-09T22:56:16.512Z,10.00
2017-06-09T22:58:50.388Z,24.27
2017-06-09T23:01:24.899Z,9.57
2017-06-09T23:03:58.617Z,7.83
2017-06-09T23:06:32.323Z,6.20
2017-06-09T23:09:06.924Z,6.50
2017-06-09T23:11:40.545Z,5.80
2017-06-09T23:14:15.129Z,7.03
2017-06-09T23:16:48.929Z,6.97
2017-06-09T23:19:23.439Z,7.00
2017-06-09T23:21:57.180Z,5.67
2017-06-09T23:24:49.501Z,7.47
2017-06-09T23:27:23.913Z,4.47
2017-06-09T23:30:03.346Z,6.73
2017-06-09T23:32:39.792Z,7.73
2017-06-09T23:35:28.484Z,6.17
2017-06-09T23:38:03.721Z,6.43
2017-06-09T23:40:37.857Z,5.27
2017-06-09T23:43:11.597Z,6.73
2017-06-09T23:45:46.005Z,5.00
2017-06-09T23:48:20.083Z,5.07
2017-06-09T23:50:54.472Z,6.50
2017-06-09T23:53:28.984Z,6.90
2017-06-09T23:56:02.796Z,6.00
2017-06-09T23:58:37.359Z,6.20
